Ilha Solteira, Brazil
Current Conditions -  °F | °C
As of 10:00 AM on Wednesday 26 Nov 2014 (Local Time) from SBAU Reporting Station
Broken Clouds Broken Clouds  
Wind Chill: 75°   Ceiling: 600
Heat Index: 75°   Visibility: 6mi
Dew Point: 72°   Wind: 12mph
Humidity: 89%   Direction: 360°N
Pressure: 29.85"   Gusts: NA
Location:  20.43°S, 51.34°W
Report Text: SBAU 261200Z 36010KT 9999 BKN006 BKN080 24/22 Q1011
Loading
Personal Weather Stations






























Interactive Weather Map New forecast layout! Learn more

10-Day Weather Forecast

Advertisements
Track Severe Weather on mobile